Terminal Aerodrome Forecast
Issued by NWS

Home | Current Version | Previous Version | Text Only | Print | Product List | Glossary Off
Versions: 1 2 3 4 5 6 7 8 9 10 11 12 13 14 15 16

000
FTUS42 KMHX 152338
TAFISO
TAF
KISO 152338Z 1600/1624 19005KT P6SM SKC
     FM160900 VRB03KT 3SM BR BKN006
     FM161300 31009KT P6SM VCSH BKN015
     FM161500 36014G22KT 6SM -SHRA OVC020
     FM162100 02010KT P6SM BKN070
      AMD LTD TO CLD VIS AND WIND=

USA.gov is the U.S. government's official web portal to all federal, state and local government web resources and services.